sensor_id;sensor_type;location;lat;lon;timestamp;temperature;humidity
33508;DHT22;25568;37.410;-122.096;2023-11-19T00:00:28;20.30;87.40
33508;DHT22;25568;37.410;-122.096;2023-11-19T00:02:57;20.30;87.30
33508;DHT22;25568;37.410;-122.096;2023-11-19T00:05:26;20.40;87.30
33508;DHT22;25568;37.410;-122.096;2023-11-19T00:07:55;20.30;87.20
33508;DHT22;25568;37.410;-122.096;2023-11-19T00:10:25;20.30;87.20
33508;DHT22;25568;37.410;-122.096;2023-11-19T00:12:54;20.30;87.20
33508;DHT22;25568;37.410;-122.096;2023-11-19T00:15:23;20.40;87.90
33508;DHT22;25568;37.410;-122.096;2023-11-19T00:17:52;20.30;87.10
33508;DHT22;25568;37.410;-122.096;2023-11-19T00:20:21;20.30;87.10
33508;DHT22;25568;37.410;-122.096;2023-11-19T00:22:50;20.40;87.10
33508;DHT22;25568;37.410;-122.096;2023-11-19T00:25:19;20.40;87.20
33508;DHT22;25568;37.410;-122.096;2023-11-19T00:27:49;20.40;87.10
33508;DHT22;25568;37.410;-122.096;2023-11-19T00:30:20;20.40;87.10
33508;DHT22;25568;37.410;-122.096;2023-11-19T00:32:49;20.30;87.00
33508;DHT22;25568;37.410;-122.096;2023-11-19T00:35:18;20.40;87.00
33508;DHT22;25568;37.410;-122.096;2023-11-19T00:37:46;20.30;86.90
33508;DHT22;25568;37.410;-122.096;2023-11-19T00:40:16;20.40;87.00
33508;DHT22;25568;37.410;-122.096;2023-11-19T00:42:49;20.30;86.90
33508;DHT22;25568;37.410;-122.096;2023-11-19T00:45:18;20.40;87.00
33508;DHT22;25568;37.410;-122.096;2023-11-19T00:47:47;20.40;87.00
33508;DHT22;25568;37.410;-122.096;2023-11-19T00:50:16;20.30;86.90
33508;DHT22;25568;37.410;-122.096;2023-11-19T00:52:45;20.30;86.80
33508;DHT22;25568;37.410;-122.096;2023-11-19T00:55:14;20.30;86.80
33508;DHT22;25568;37.410;-122.096;2023-11-19T00:57:42;20.40;86.80
33508;DHT22;25568;37.410;-122.096;2023-11-19T01:00:15;20.40;86.80
33508;DHT22;25568;37.410;-122.096;2023-11-19T01:02:46;20.30;86.80
33508;DHT22;25568;37.410;-122.096;2023-11-19T01:05:16;20.30;86.70
33508;DHT22;25568;37.410;-122.096;2023-11-19T01:07:48;20.30;86.70
33508;DHT22;25568;37.410;-122.096;2023-11-19T01:10:17;20.30;86.60
33508;DHT22;25568;37.410;-122.096;2023-11-19T01:12:46;20.40;86.70
33508;DHT22;25568;37.410;-122.096;2023-11-19T01:15:17;20.40;86.60
33508;DHT22;25568;37.410;-122.096;2023-11-19T01:17:47;20.40;86.60
33508;DHT22;25568;37.410;-122.096;2023-11-19T01:20:16;20.40;86.60
33508;DHT22;25568;37.410;-122.096;2023-11-19T01:22:45;20.40;86.60
33508;DHT22;25568;37.410;-122.096;2023-11-19T01:25:15;20.30;86.50
33508;DHT22;25568;37.410;-122.096;2023-11-19T01:27:44;20.30;86.40
33508;DHT22;25568;37.410;-122.096;2023-11-19T01:30:13;20.30;86.50
33508;DHT22;25568;37.410;-122.096;2023-11-19T01:32:44;20.30;86.50
33508;DHT22;25568;37.410;-122.096;2023-11-19T01:35:13;20.30;86.40
33508;DHT22;25568;37.410;-122.096;2023-11-19T01:37:41;20.40;86.40
33508;DHT22;25568;37.410;-122.096;2023-11-19T01:40:11;20.30;86.40
33508;DHT22;25568;37.410;-122.096;2023-11-19T01:42:41;20.30;86.30
33508;DHT22;25568;37.410;-122.096;2023-11-19T01:45:10;20.30;86.30
33508;DHT22;25568;37.410;-122.096;2023-11-19T01:47:51;20.40;86.30
33508;DHT22;25568;37.410;-122.096;2023-11-19T01:50:20;20.30;86.30
33508;DHT22;25568;37.410;-122.096;2023-11-19T01:52:49;20.30;86.30
33508;DHT22;25568;37.410;-122.096;2023-11-19T01:55:19;20.30;86.30
33508;DHT22;25568;37.410;-122.096;2023-11-19T01:57:49;20.30;86.30
33508;DHT22;25568;37.410;-122.096;2023-11-19T02:00:19;20.30;86.20
33508;DHT22;25568;37.410;-122.096;2023-11-19T02:02:50;20.30;86.10
33508;DHT22;25568;37.410;-122.096;2023-11-19T02:05:21;20.30;86.20
33508;DHT22;25568;37.410;-122.096;2023-11-19T02:07:50;20.30;86.20
33508;DHT22;25568;37.410;-122.096;2023-11-19T02:10:19;20.30;86.10
33508;DHT22;25568;37.410;-122.096;2023-11-19T02:12:51;20.30;86.10
33508;DHT22;25568;37.410;-122.096;2023-11-19T02:15:20;20.30;86.10
33508;DHT22;25568;37.410;-122.096;2023-11-19T02:17:52;20.30;86.20
33508;DHT22;25568;37.410;-122.096;2023-11-19T02:20:21;20.30;86.10
33508;DHT22;25568;37.410;-122.096;2023-11-19T02:22:51;20.30;86.10
33508;DHT22;25568;37.410;-122.096;2023-11-19T02:25:25;20.30;86.00
33508;DHT22;25568;37.410;-122.096;2023-11-19T02:27:58;20.30;86.00
33508;DHT22;25568;37.410;-122.096;2023-11-19T02:30:28;20.30;86.00
33508;DHT22;25568;37.410;-122.096;2023-11-19T02:32:58;20.30;86.00
33508;DHT22;25568;37.410;-122.096;2023-11-19T02:35:32;20.30;85.90
33508;DHT22;25568;37.410;-122.096;2023-11-19T02:38:01;20.30;85.90
33508;DHT22;25568;37.410;-122.096;2023-11-19T02:40:30;20.30;85.90
33508;DHT22;25568;37.410;-122.096;2023-11-19T02:43:01;20.30;85.90
33508;DHT22;25568;37.410;-122.096;2023-11-19T02:45:31;20.30;85.90
33508;DHT22;25568;37.410;-122.096;2023-11-19T02:47:59;20.30;85.90
33508;DHT22;25568;37.410;-122.096;2023-11-19T02:50:33;20.30;85.90
33508;DHT22;25568;37.410;-122.096;2023-11-19T02:53:02;20.30;85.90
33508;DHT22;25568;37.410;-122.096;2023-11-19T02:55:30;20.30;85.90
33508;DHT22;25568;37.410;-122.096;2023-11-19T02:58:04;20.30;85.80
33508;DHT22;25568;37.410;-122.096;2023-11-19T03:00:46;20.30;85.80
33508;DHT22;25568;37.410;-122.096;2023-11-19T03:03:23;20.30;85.80
33508;DHT22;25568;37.410;-122.096;2023-11-19T03:05:55;20.30;85.80
33508;DHT22;25568;37.410;-122.096;2023-11-19T03:08:24;20.30;85.80
33508;DHT22;25568;37.410;-122.096;2023-11-19T03:10:53;20.20;85.70
33508;DHT22;25568;37.410;-122.096;2023-11-19T03:13:23;20.30;85.80
33508;DHT22;25568;37.410;-122.096;2023-11-19T03:15:52;20.30;85.80
33508;DHT22;25568;37.410;-122.096;2023-11-19T03:18:22;20.30;85.70
33508;DHT22;25568;37.410;-122.096;2023-11-19T03:20:50;20.20;85.60
33508;DHT22;25568;37.410;-122.096;2023-11-19T03:23:19;20.20;85.60
33508;DHT22;25568;37.410;-122.096;2023-11-19T03:25:49;20.20;85.60
33508;DHT22;25568;37.410;-122.096;2023-11-19T03:28:18;20.20;85.60
33508;DHT22;25568;37.410;-122.096;2023-11-19T03:30:48;20.20;85.50
33508;DHT22;25568;37.410;-122.096;2023-11-19T03:33:17;20.20;85.50
33508;DHT22;25568;37.410;-122.096;2023-11-19T03:35:46;20.20;85.50
33508;DHT22;25568;37.410;-122.096;2023-11-19T03:38:15;20.20;85.50
33508;DHT22;25568;37.410;-122.096;2023-11-19T03:40:44;20.20;85.50
33508;DHT22;25568;37.410;-122.096;2023-11-19T03:43:12;20.20;85.40
33508;DHT22;25568;37.410;-122.096;2023-11-19T03:45:42;20.20;85.40
33508;DHT22;25568;37.410;-122.096;2023-11-19T03:48:12;20.20;85.40
33508;DHT22;25568;37.410;-122.096;2023-11-19T03:50:42;20.20;85.40
33508;DHT22;25568;37.410;-122.096;2023-11-19T03:53:12;20.20;85.40
33508;DHT22;25568;37.410;-122.096;2023-11-19T03:55:41;20.20;85.50
33508;DHT22;25568;37.410;-122.096;2023-11-19T03:58:10;20.20;85.40
33508;DHT22;25568;37.410;-122.096;2023-11-19T04:00:39;20.20;85.40
33508;DHT22;25568;37.410;-122.096;2023-11-19T04:03:23;20.20;85.40
33508;DHT22;25568;37.410;-122.096;2023-11-19T04:05:52;20.20;85.30
33508;DHT22;25568;37.410;-122.096;2023-11-19T04:08:21;20.20;85.30
33508;DHT22;25568;37.410;-122.096;2023-11-19T04:10:50;20.20;85.40
33508;DHT22;25568;37.410;-122.096;2023-11-19T04:13:18;20.20;85.40
33508;DHT22;25568;37.410;-122.096;2023-11-19T04:15:48;20.20;85.40
33508;DHT22;25568;37.410;-122.096;2023-11-19T04:18:17;20.20;85.40
33508;DHT22;25568;37.410;-122.096;2023-11-19T04:20:47;20.20;85.40
33508;DHT22;25568;37.410;-122.096;2023-11-19T04:23:34;20.20;85.30
33508;DHT22;25568;37.410;-122.096;2023-11-19T04:26:03;20.20;85.30
33508;DHT22;25568;37.410;-122.096;2023-11-19T04:28:33;20.20;85.40
33508;DHT22;25568;37.410;-122.096;2023-11-19T04:31:02;20.20;85.30
33508;DHT22;25568;37.410;-122.096;2023-11-19T04:33:31;20.20;85.30
33508;DHT22;25568;37.410;-122.096;2023-11-19T04:36:01;20.20;85.30
33508;DHT22;25568;37.410;-122.096;2023-11-19T04:38:30;20.20;85.30
33508;DHT22;25568;37.410;-122.096;2023-11-19T04:40:59;20.10;85.20
33508;DHT22;25568;37.410;-122.096;2023-11-19T04:43:28;20.10;85.20
33508;DHT22;25568;37.410;-122.096;2023-11-19T04:45:57;20.10;85.10
33508;DHT22;25568;37.410;-122.096;2023-11-19T04:48:25;20.10;85.20
33508;DHT22;25568;37.410;-122.096;2023-11-19T04:50:54;20.10;85.20
33508;DHT22;25568;37.410;-122.096;2023-11-19T04:53:25;20.10;85.10
33508;DHT22;25568;37.410;-122.096;2023-11-19T04:55:53;20.10;85.10
33508;DHT22;25568;37.410;-122.096;2023-11-19T04:58:22;20.10;85.10
33508;DHT22;25568;37.410;-122.096;2023-11-19T05:00:51;20.10;85.10
33508;DHT22;25568;37.410;-122.096;2023-11-19T05:03:20;20.10;85.10
33508;DHT22;25568;37.410;-122.096;2023-11-19T05:05:50;20.10;85.10
33508;DHT22;25568;37.410;-122.096;2023-11-19T05:08:18;20.10;85.10
33508;DHT22;25568;37.410;-122.096;2023-11-19T05:10:49;20.10;85.10
33508;DHT22;25568;37.410;-122.096;2023-11-19T05:13:17;20.10;85.10
33508;DHT22;25568;37.410;-122.096;2023-11-19T05:15:46;20.10;85.10
33508;DHT22;25568;37.410;-122.096;2023-11-19T05:18:15;20.10;85.10
33508;DHT22;25568;37.410;-122.096;2023-11-19T05:20:44;20.10;85.10
33508;DHT22;25568;37.410;-122.096;2023-11-19T05:23:13;20.10;85.00
33508;DHT22;25568;37.410;-122.096;2023-11-19T05:25:42;20.10;85.10
33508;DHT22;25568;37.410;-122.096;2023-11-19T05:28:12;20.10;85.10
33508;DHT22;25568;37.410;-122.096;2023-11-19T05:30:41;20.10;85.10
33508;DHT22;25568;37.410;-122.096;2023-11-19T05:33:10;20.10;85.10
33508;DHT22;25568;37.410;-122.096;2023-11-19T05:35:39;20.10;85.10
33508;DHT22;25568;37.410;-122.096;2023-11-19T05:38:08;20.10;85.10
33508;DHT22;25568;37.410;-122.096;2023-11-19T05:40:37;20.10;85.10
33508;DHT22;25568;37.410;-122.096;2023-11-19T05:43:07;20.00;85.00
33508;DHT22;25568;37.410;-122.096;2023-11-19T05:45:37;20.00;85.00
33508;DHT22;25568;37.410;-122.096;2023-11-19T05:48:06;20.10;85.00
33508;DHT22;25568;37.410;-122.096;2023-11-19T05:50:36;20.00;85.00
33508;DHT22;25568;37.410;-122.096;2023-11-19T05:53:05;20.00;85.00
33508;DHT22;25568;37.410;-122.096;2023-11-19T05:55:36;20.00;85.00
33508;DHT22;25568;37.410;-122.096;2023-11-19T05:58:12;20.00;85.00
33508;DHT22;25568;37.410;-122.096;2023-11-19T06:00:43;20.00;85.00
33508;DHT22;25568;37.410;-122.096;2023-11-19T06:03:12;20.00;84.90
33508;DHT22;25568;37.410;-122.096;2023-11-19T06:05:40;20.00;85.00
33508;DHT22;25568;37.410;-122.096;2023-11-19T06:08:09;20.00;85.00
33508;DHT22;25568;37.410;-122.096;2023-11-19T06:10:39;20.00;84.90
33508;DHT22;25568;37.410;-122.096;2023-11-19T06:13:08;20.00;85.60
33508;DHT22;25568;37.410;-122.096;2023-11-19T06:15:38;20.00;84.90
33508;DHT22;25568;37.410;-122.096;2023-11-19T06:18:08;20.00;85.00
33508;DHT22;25568;37.410;-122.096;2023-11-19T06:20:38;20.00;85.00
33508;DHT22;25568;37.410;-122.096;2023-11-19T06:23:07;20.00;84.90
33508;DHT22;25568;37.410;-122.096;2023-11-19T06:25:36;20.00;84.90
33508;DHT22;25568;37.410;-122.096;2023-11-19T06:28:05;20.00;84.80
33508;DHT22;25568;37.410;-122.096;2023-11-19T06:30:33;20.00;84.80
33508;DHT22;25568;37.410;-122.096;2023-11-19T06:33:03;20.00;84.80
33508;DHT22;25568;37.410;-122.096;2023-11-19T06:35:33;20.00;84.80
33508;DHT22;25568;37.410;-122.096;2023-11-19T06:38:04;20.00;84.80
33508;DHT22;25568;37.410;-122.096;2023-11-19T06:40:33;20.00;84.80
33508;DHT22;25568;37.410;-122.096;2023-11-19T06:43:02;19.90;84.70
33508;DHT22;25568;37.410;-122.096;2023-11-19T06:45:31;19.90;84.70
33508;DHT22;25568;37.410;-122.096;2023-11-19T06:48:01;19.90;84.60
33508;DHT22;25568;37.410;-122.096;2023-11-19T06:50:33;20.00;84.70
33508;DHT22;25568;37.410;-122.096;2023-11-19T06:53:02;19.90;84.60
33508;DHT22;25568;37.410;-122.096;2023-11-19T06:55:32;19.90;84.60
33508;DHT22;25568;37.410;-122.096;2023-11-19T06:58:00;19.90;84.60
33508;DHT22;25568;37.410;-122.096;2023-11-19T07:00:30;19.90;84.70
33508;DHT22;25568;37.410;-122.096;2023-11-19T07:02:59;19.90;84.50
33508;DHT22;25568;37.410;-122.096;2023-11-19T07:05:28;19.90;84.50
33508;DHT22;25568;37.410;-122.096;2023-11-19T07:07:58;19.90;84.50
33508;DHT22;25568;37.410;-122.096;2023-11-19T07:10:27;19.90;84.50
33508;DHT22;25568;37.410;-122.096;2023-11-19T07:12:57;19.90;84.50
33508;DHT22;25568;37.410;-122.096;2023-11-19T07:15:26;19.90;84.50
33508;DHT22;25568;37.410;-122.096;2023-11-19T07:17:54;19.90;84.50
33508;DHT22;25568;37.410;-122.096;2023-11-19T07:20:24;19.90;84.40
33508;DHT22;25568;37.410;-122.096;2023-11-19T07:22:54;19.90;84.40
33508;DHT22;25568;37.410;-122.096;2023-11-19T07:25:25;19.90;84.40
33508;DHT22;25568;37.410;-122.096;2023-11-19T07:27:54;19.80;84.30
33508;DHT22;25568;37.410;-122.096;2023-11-19T07:30:23;19.80;84.30
33508;DHT22;25568;37.410;-122.096;2023-11-19T07:32:51;19.80;84.30
33508;DHT22;25568;37.410;-122.096;2023-11-19T07:35:20;19.80;84.30
33508;DHT22;25568;37.410;-122.096;2023-11-19T07:37:49;19.80;84.30
33508;DHT22;25568;37.410;-122.096;2023-11-19T07:40:18;19.80;84.20
33508;DHT22;25568;37.410;-122.096;2023-11-19T07:42:49;19.80;84.20
33508;DHT22;25568;37.410;-122.096;2023-11-19T07:45:17;19.80;84.20
33508;DHT22;25568;37.410;-122.096;2023-11-19T07:47:46;19.80;84.10
33508;DHT22;25568;37.410;-122.096;2023-11-19T07:50:15;19.80;84.10
33508;DHT22;25568;37.410;-122.096;2023-11-19T07:52:46;19.80;84.00
33508;DHT22;25568;37.410;-122.096;2023-11-19T07:55:15;19.80;84.10
33508;DHT22;25568;37.410;-122.096;2023-11-19T07:57:44;19.70;84.00
33508;DHT22;25568;37.410;-122.096;2023-11-19T08:00:16;19.70;84.00
33508;DHT22;25568;37.410;-122.096;2023-11-19T08:02:46;19.70;84.00
33508;DHT22;25568;37.410;-122.096;2023-11-19T08:05:15;19.70;83.90
33508;DHT22;25568;37.410;-122.096;2023-11-19T08:07:44;19.70;83.90
33508;DHT22;25568;37.410;-122.096;2023-11-19T08:10:12;19.70;83.90
33508;DHT22;25568;37.410;-122.096;2023-11-19T08:12:41;19.70;83.90
33508;DHT22;25568;37.410;-122.096;2023-11-19T08:15:10;19.70;83.80
33508;DHT22;25568;37.410;-122.096;2023-11-19T08:17:41;19.70;83.80
33508;DHT22;25568;37.410;-122.096;2023-11-19T08:20:10;19.70;83.80
33508;DHT22;25568;37.410;-122.096;2023-11-19T08:22:39;19.70;83.90
33508;DHT22;25568;37.410;-122.096;2023-11-19T08:25:09;19.70;83.80
33508;DHT22;25568;37.410;-122.096;2023-11-19T08:27:38;19.70;83.80
33508;DHT22;25568;37.410;-122.096;2023-11-19T08:30:07;19.70;83.70
33508;DHT22;25568;37.410;-122.096;2023-11-19T08:32:36;19.60;83.80
33508;DHT22;25568;37.410;-122.096;2023-11-19T08:35:07;19.60;83.60
33508;DHT22;25568;37.410;-122.096;2023-11-19T08:37:36;19.60;83.70
33508;DHT22;25568;37.410;-122.096;2023-11-19T08:40:06;19.60;83.70
33508;DHT22;25568;37.410;-122.096;2023-11-19T08:42:35;19.60;83.70
33508;DHT22;25568;37.410;-122.096;2023-11-19T08:45:06;19.60;83.60
33508;DHT22;25568;37.410;-122.096;2023-11-19T08:47:36;19.60;83.50
33508;DHT22;25568;37.410;-122.096;2023-11-19T08:50:09;19.60;83.60
33508;DHT22;25568;37.410;-122.096;2023-11-19T08:52:38;19.60;83.60
33508;DHT22;25568;37.410;-122.096;2023-11-19T08:55:07;19.60;83.50
33508;DHT22;25568;37.410;-122.096;2023-11-19T08:57:36;19.60;83.50
33508;DHT22;25568;37.410;-122.096;2023-11-19T09:00:06;19.60;83.60
33508;DHT22;25568;37.410;-122.096;2023-11-19T09:02:36;19.50;83.50
33508;DHT22;25568;37.410;-122.096;2023-11-19T09:05:07;19.50;83.50
33508;DHT22;25568;37.410;-122.096;2023-11-19T09:07:36;19.50;83.30
33508;DHT22;25568;37.410;-122.096;2023-11-19T09:10:06;19.50;83.40
33508;DHT22;25568;37.410;-122.096;2023-11-19T09:12:35;19.50;83.50
33508;DHT22;25568;37.410;-122.096;2023-11-19T09:15:04;19.50;83.40
33508;DHT22;25568;37.410;-122.096;2023-11-19T09:17:33;19.50;83.30
33508;DHT22;25568;37.410;-122.096;2023-11-19T09:20:02;19.50;83.30
33508;DHT22;25568;37.410;-122.096;2023-11-19T09:22:32;19.50;83.30
33508;DHT22;25568;37.410;-122.096;2023-11-19T09:25:01;19.50;83.30
33508;DHT22;25568;37.410;-122.096;2023-11-19T09:27:31;19.50;83.30
33508;DHT22;25568;37.410;-122.096;2023-11-19T09:30:00;19.50;83.30
33508;DHT22;25568;37.410;-122.096;2023-11-19T09:32:30;19.50;83.20
33508;DHT22;25568;37.410;-122.096;2023-11-19T09:34:59;19.40;83.20
33508;DHT22;25568;37.410;-122.096;2023-11-19T09:37:31;19.40;83.20
33508;DHT22;25568;37.410;-122.096;2023-11-19T09:40:00;19.40;83.20
33508;DHT22;25568;37.410;-122.096;2023-11-19T09:42:28;19.40;83.20
33508;DHT22;25568;37.410;-122.096;2023-11-19T09:45:00;19.40;83.20
33508;DHT22;25568;37.410;-122.096;2023-11-19T09:47:31;19.40;83.10
33508;DHT22;25568;37.410;-122.096;2023-11-19T09:50:00;19.40;83.20
33508;DHT22;25568;37.410;-122.096;2023-11-19T09:52:33;19.40;83.30
33508;DHT22;25568;37.410;-122.096;2023-11-19T09:55:02;19.40;83.30
33508;DHT22;25568;37.410;-122.096;2023-11-19T09:57:33;19.40;83.20
33508;DHT22;25568;37.410;-122.096;2023-11-19T10:00:04;19.40;83.10
33508;DHT22;25568;37.410;-122.096;2023-11-19T10:02:34;19.30;83.00
33508;DHT22;25568;37.410;-122.096;2023-11-19T10:05:06;19.30;83.10
33508;DHT22;25568;37.410;-122.096;2023-11-19T10:07:37;19.30;83.10
33508;DHT22;25568;37.410;-122.096;2023-11-19T10:10:06;19.30;83.10
33508;DHT22;25568;37.410;-122.096;2023-11-19T10:12:37;19.30;83.00
33508;DHT22;25568;37.410;-122.096;2023-11-19T10:15:07;19.30;83.00
33508;DHT22;25568;37.410;-122.096;2023-11-19T10:17:39;19.30;82.90
33508;DHT22;25568;37.410;-122.096;2023-11-19T10:20:09;19.30;83.00
33508;DHT22;25568;37.410;-122.096;2023-11-19T10:22:40;19.30;83.00
33508;DHT22;25568;37.410;-122.096;2023-11-19T10:25:22;19.30;82.90
33508;DHT22;25568;37.410;-122.096;2023-11-19T10:27:52;19.30;82.90
33508;DHT22;25568;37.410;-122.096;2023-11-19T10:30:21;19.30;83.00
33508;DHT22;25568;37.410;-122.096;2023-11-19T10:33:07;19.20;82.90
33508;DHT22;25568;37.410;-122.096;2023-11-19T10:35:37;19.20;82.90
33508;DHT22;25568;37.410;-122.096;2023-11-19T10:38:20;19.20;82.80
33508;DHT22;25568;37.410;-122.096;2023-11-19T10:40:49;19.20;82.80
33508;DHT22;25568;37.410;-122.096;2023-11-19T10:43:19;19.20;82.90
33508;DHT22;25568;37.410;-122.096;2023-11-19T10:45:49;19.20;82.90
33508;DHT22;25568;37.410;-122.096;2023-11-19T10:48:18;19.10;82.80
33508;DHT22;25568;37.410;-122.096;2023-11-19T10:50:53;19.20;82.90
33508;DHT22;25568;37.410;-122.096;2023-11-19T10:53:25;19.20;82.90
33508;DHT22;25568;37.410;-122.096;2023-11-19T10:55:56;19.10;82.80
33508;DHT22;25568;37.410;-122.096;2023-11-19T10:58:28;19.10;82.80
33508;DHT22;25568;37.410;-122.096;2023-11-19T11:01:02;19.10;82.80
33508;DHT22;25568;37.410;-122.096;2023-11-19T11:03:37;19.10;82.80
33508;DHT22;25568;37.410;-122.096;2023-11-19T11:06:09;19.10;82.80
33508;DHT22;25568;37.410;-122.096;2023-11-19T11:08:40;19.10;82.80
33508;DHT22;25568;37.410;-122.096;2023-11-19T11:11:14;19.10;82.70
33508;DHT22;25568;37.410;-122.096;2023-11-19T11:13:45;19.10;82.70
33508;DHT22;25568;37.410;-122.096;2023-11-19T11:16:16;19.10;82.70
33508;DHT22;25568;37.410;-122.096;2023-11-19T11:18:48;19.10;82.80
33508;DHT22;25568;37.410;-122.096;2023-11-19T11:21:20;19.10;82.70
33508;DHT22;25568;37.410;-122.096;2023-11-19T11:27:05;19.00;82.70
33508;DHT22;25568;37.410;-122.096;2023-11-19T11:29:45;19.00;82.60
33508;DHT22;25568;37.410;-122.096;2023-11-19T11:32:29;19.00;83.40
33508;DHT22;25568;37.410;-122.096;2023-11-19T11:35:19;19.00;82.70
33508;DHT22;25568;37.410;-122.096;2023-11-19T11:38:00;19.00;82.70
33508;DHT22;25568;37.410;-122.096;2023-11-19T11:40:32;19.00;82.60
33508;DHT22;25568;37.410;-122.096;2023-11-19T11:43:00;19.00;82.60
33508;DHT22;25568;37.410;-122.096;2023-11-19T11:45:39;19.00;82.50
33508;DHT22;25568;37.410;-122.096;2023-11-19T11:48:14;19.00;82.60
33508;DHT22;25568;37.410;-122.096;2023-11-19T11:50:57;18.90;82.50
33508;DHT22;25568;37.410;-122.096;2023-11-19T11:53:26;18.90;82.50
33508;DHT22;25568;37.410;-122.096;2023-11-19T11:56:00;18.90;82.50
33508;DHT22;25568;37.410;-122.096;2023-11-19T11:58:35;18.90;82.50
33508;DHT22;25568;37.410;-122.096;2023-11-19T12:01:04;18.90;82.50
33508;DHT22;25568;37.410;-122.096;2023-11-19T12:03:38;18.90;82.50
33508;DHT22;25568;37.410;-122.096;2023-11-19T12:06:07;18.90;82.40
33508;DHT22;25568;37.410;-122.096;2023-11-19T12:08:36;18.90;82.50
33508;DHT22;25568;37.410;-122.096;2023-11-19T12:11:08;18.90;82.40
33508;DHT22;25568;37.410;-122.096;2023-11-19T12:13:57;18.80;82.40
33508;DHT22;25568;37.410;-122.096;2023-11-19T12:16:29;18.80;82.40
33508;DHT22;25568;37.410;-122.096;2023-11-19T12:19:03;18.80;82.30
33508;DHT22;25568;37.410;-122.096;2023-11-19T12:21:33;18.80;82.40
33508;DHT22;25568;37.410;-122.096;2023-11-19T12:24:04;18.80;82.40
33508;DHT22;25568;37.410;-122.096;2023-11-19T12:26:37;18.80;82.30
33508;DHT22;25568;37.410;-122.096;2023-11-19T12:29:07;18.80;82.30
33508;DHT22;25568;37.410;-122.096;2023-11-19T12:31:35;18.80;82.30
33508;DHT22;25568;37.410;-122.096;2023-11-19T12:34:10;18.80;82.20
33508;DHT22;25568;37.410;-122.096;2023-11-19T12:36:40;18.80;82.30
33508;DHT22;25568;37.410;-122.096;2023-11-19T12:39:12;18.80;82.30
33508;DHT22;25568;37.410;-122.096;2023-11-19T12:41:52;18.80;82.30
33508;DHT22;25568;37.410;-122.096;2023-11-19T12:44:21;18.80;82.40
33508;DHT22;25568;37.410;-122.096;2023-11-19T12:47:04;18.70;82.20
33508;DHT22;25568;37.410;-122.096;2023-11-19T12:49:33;18.70;82.30
33508;DHT22;25568;37.410;-122.096;2023-11-19T12:52:02;18.70;82.20
33508;DHT22;25568;37.410;-122.096;2023-11-19T12:54:34;18.70;82.20
33508;DHT22;25568;37.410;-122.096;2023-11-19T12:57:05;18.70;82.30
33508;DHT22;25568;37.410;-122.096;2023-11-19T12:59:35;18.70;82.30
33508;DHT22;25568;37.410;-122.096;2023-11-19T13:02:03;18.70;82.20
33508;DHT22;25568;37.410;-122.096;2023-11-19T13:04:33;18.70;82.20
33508;DHT22;25568;37.410;-122.096;2023-11-19T13:07:02;18.70;82.20
33508;DHT22;25568;37.410;-122.096;2023-11-19T13:09:32;18.70;82.20
33508;DHT22;25568;37.410;-122.096;2023-11-19T13:12:14;18.60;82.10
33508;DHT22;25568;37.410;-122.096;2023-11-19T13:14:43;18.60;82.10
33508;DHT22;25568;37.410;-122.096;2023-11-19T13:17:16;18.60;82.10
33508;DHT22;25568;37.410;-122.096;2023-11-19T13:19:48;18.60;82.10
33508;DHT22;25568;37.410;-122.096;2023-11-19T13:22:17;18.60;82.10
33508;DHT22;25568;37.410;-122.096;2023-11-19T13:24:46;18.60;82.00
33508;DHT22;25568;37.410;-122.096;2023-11-19T13:27:16;18.60;82.00
33508;DHT22;25568;37.410;-122.096;2023-11-19T13:29:45;18.60;82.00
33508;DHT22;25568;37.410;-122.096;2023-11-19T13:32:14;18.60;82.00
33508;DHT22;25568;37.410;-122.096;2023-11-19T13:34:43;18.60;82.00
33508;DHT22;25568;37.410;-122.096;2023-11-19T13:37:12;18.60;82.00
33508;DHT22;25568;37.410;-122.096;2023-11-19T13:39:42;18.60;82.00
33508;DHT22;25568;37.410;-122.096;2023-11-19T13:42:11;18.60;82.00
33508;DHT22;25568;37.410;-122.096;2023-11-19T13:44:41;18.60;82.00
33508;DHT22;25568;37.410;-122.096;2023-11-19T13:47:10;18.50;81.90
33508;DHT22;25568;37.410;-122.096;2023-11-19T13:49:40;18.50;81.80
33508;DHT22;25568;37.410;-122.096;2023-11-19T13:52:09;18.50;81.80
33508;DHT22;25568;37.410;-122.096;2023-11-19T13:54:38;18.50;81.80
33508;DHT22;25568;37.410;-122.096;2023-11-19T13:57:07;18.50;81.80
33508;DHT22;25568;37.410;-122.096;2023-11-19T13:59:41;18.50;81.80
33508;DHT22;25568;37.410;-122.096;2023-11-19T14:02:11;18.50;81.80
33508;DHT22;25568;37.410;-122.096;2023-11-19T14:04:40;18.50;81.80
33508;DHT22;25568;37.410;-122.096;2023-11-19T14:07:08;18.50;82.70
33508;DHT22;25568;37.410;-122.096;2023-11-19T14:09:37;18.40;81.80
33508;DHT22;25568;37.410;-122.096;2023-11-19T14:12:06;18.40;81.80
33508;DHT22;25568;37.410;-122.096;2023-11-19T14:14:36;18.40;81.80
33508;DHT22;25568;37.410;-122.096;2023-11-19T14:17:07;18.40;81.80
33508;DHT22;25568;37.410;-122.096;2023-11-19T14:19:37;18.50;81.70
33508;DHT22;25568;37.410;-122.096;2023-11-19T14:22:06;18.40;81.60
33508;DHT22;25568;37.410;-122.096;2023-11-19T14:24:35;18.40;81.60
33508;DHT22;25568;37.410;-122.096;2023-11-19T14:27:04;18.40;81.70
33508;DHT22;25568;37.410;-122.096;2023-11-19T14:29:33;18.40;81.70
33508;DHT22;25568;37.410;-122.096;2023-11-19T14:32:02;18.40;81.70
33508;DHT22;25568;37.410;-122.096;2023-11-19T14:34:33;18.40;82.40
33508;DHT22;25568;37.410;-122.096;2023-11-19T14:37:01;18.40;81.70
33508;DHT22;25568;37.410;-122.096;2023-11-19T14:39:30;18.40;81.60
33508;DHT22;25568;37.410;-122.096;2023-11-19T14:41:59;18.40;81.50
33508;DHT22;25568;37.410;-122.096;2023-11-19T14:44:31;18.30;81.50
33508;DHT22;25568;37.410;-122.096;2023-11-19T14:47:00;18.40;81.60
33508;DHT22;25568;37.410;-122.096;2023-11-19T14:49:31;18.40;81.50
33508;DHT22;25568;37.410;-122.096;2023-11-19T14:51:59;18.30;81.50
33508;DHT22;25568;37.410;-122.096;2023-11-19T14:54:28;18.30;81.50
33508;DHT22;25568;37.410;-122.096;2023-11-19T14:56:57;18.30;81.40
33508;DHT22;25568;37.410;-122.096;2023-11-19T14:59:27;18.30;81.50
33508;DHT22;25568;37.410;-122.096;2023-11-19T15:01:56;18.30;81.30
33508;DHT22;25568;37.410;-122.096;2023-11-19T15:04:26;18.30;81.50
33508;DHT22;25568;37.410;-122.096;2023-11-19T15:06:59;18.30;81.50
33508;DHT22;25568;37.410;-122.096;2023-11-19T15:09:28;18.30;81.50